Time;durP1;ratioP1;P1;durP2;ratioP2;P2;SDS_P1;SDS_P2;PMS_P1;PMS_P2;Temp;Humidity;BMP_temperature;BMP_pressure;BME280_temperature;BME280_humidity;BME280_pressure;Samples;Min_cycle;Max_cycle;Signal;HPM_P1;HPM_P2
2022/06/03 00:03:03;;;;;;;25.00;7.72;;;;;;;20.85;95.97;95042.47;5093940;28;20235;-79
2022/06/03 00:06:12;;;;;;;12.43;7.03;;;;;;;20.78;97.27;95040.13;5091958;28;20200;-80
2022/06/03 00:09:09;;;;;;;13.35;7.07;;;;;;;20.77;97.18;95037.75;5072153;28;20233;-79
2022/06/03 00:12:21;;;;;;;13.88;7.38;;;;;;;20.79;96.54;95033.78;5080470;28;20235;-79
2022/06/03 00:15:17;;;;;;;17.48;7.22;;;;;;;20.77;97.06;95035.13;5078459;28;20197;-79
2022/06/03 00:18:09;;;;;;;13.98;7.68;;;;;;;20.78;97.29;95034.81;5089982;28;20201;-80
2022/06/03 00:20:54;;;;;;;19.33;7.70;;;;;;;20.79;97.57;95039.06;5088882;28;20236;-79
2022/06/03 00:24:06;;;;;;;11.50;6.75;;;;;;;20.66;94.50;95039.66;5083500;28;20680;-80
2022/06/03 00:27:00;;;;;;;11.40;6.43;;;;;;;20.42;95.71;95043.97;5085629;28;20201;-79
2022/06/03 00:29:56;;;;;;;11.77;6.50;;;;;;;20.31;97.24;95034.50;5092215;28;20299;-81
2022/06/03 00:32:56;;;;;;;17.83;6.53;;;;;;;20.31;98.88;95030.03;5080054;28;20225;-78
2022/06/03 00:35:43;;;;;;;15.88;6.95;;;;;;;20.36;97.86;95037.91;5086421;28;20242;-78
2022/06/03 00:38:35;;;;;;;13.23;6.63;;;;;;;20.35;97.49;95036.31;5088939;28;20197;-78
2022/06/03 00:41:19;;;;;;;10.15;6.35;;;;;;;20.32;97.92;95039.50;5085396;28;20207;-79
2022/06/03 00:44:09;;;;;;;15.82;6.60;;;;;;;20.27;98.17;95038.72;5088923;28;20213;-79
2022/06/03 00:47:01;;;;;;;13.30;6.53;;;;;;;20.25;98.05;95036.38;5078871;28;20671;-79
2022/06/03 00:50:10;;;;;;;14.93;6.32;;;;;;;20.28;98.01;95041.13;5087529;28;20200;-78
2022/06/03 00:53:22;;;;;;;10.90;6.15;;;;;;;20.32;97.83;95042.13;5062291;28;20224;-83
2022/06/03 00:56:20;;;;;;;12.10;6.22;;;;;;;20.42;97.88;95033.41;5083213;28;20197;-83
2022/06/03 00:59:07;;;;;;;11.60;6.43;;;;;;;20.43;97.97;95029.72;5084850;28;20672;-78
2022/06/03 01:01:53;;;;;;;15.43;6.43;;;;;;;20.34;99.17;95026.03;5080423;28;20193;-78
2022/06/03 01:04:50;;;;;;;11.27;6.72;;;;;;;20.30;99.79;95020.50;5081691;28;20204;-77
2022/06/03 01:07:29;;;;;;;12.68;6.47;;;;;;;20.29;99.91;95016.28;5086923;28;20235;-79
2022/06/03 01:10:28;;;;;;;9.77;6.28;;;;;;;20.36;99.91;95022.06;5109012;28;20795;-78
2022/06/03 01:13:31;;;;;;;15.27;6.88;;;;;;;20.29;100.00;95026.84;5106651;28;20202;-79
2022/06/03 01:16:23;;;;;;;11.18;6.55;;;;;;;20.30;100.00;95022.34;5108003;28;20643;-78
2022/06/03 01:19:10;;;;;;;10.88;7.50;;;;;;;20.30;100.00;95027.63;5108590;28;20588;-77
2022/06/03 01:22:01;;;;;;;11.38;7.28;;;;;;;20.26;99.71;95022.09;5108277;28;20573;-79
2022/06/03 01:24:55;;;;;;;14.00;7.55;;;;;;;20.23;99.93;95025.25;5097809;28;20209;-77
2022/06/03 01:28:02;;;;;;;12.50;7.13;;;;;;;20.14;100.00;95018.94;5108431;28;20200;-78
2022/06/03 01:30:56;;;;;;;14.65;6.93;;;;;;;20.08;99.81;95014.75;5104656;28;20211;-77
2022/06/03 01:33:56;;;;;;;12.55;6.70;;;;;;;20.05;100.00;95022.41;5102203;28;20572;-78
2022/06/03 01:36:55;;;;;;;10.68;6.90;;;;;;;20.03;100.00;95020.00;5104744;28;20279;-78
2022/06/03 01:39:59;;;;;;;15.95;6.93;;;;;;;19.99;100.00;95018.19;5104362;28;20192;-79
2022/06/03 01:43:02;;;;;;;11.90;6.82;;;;;;;19.93;100.00;95016.63;5085370;28;20654;-79
2022/06/03 01:46:26;;;;;;;17.52;7.60;;;;;;;19.86;100.00;95018.72;5103678;28;20677;-79
2022/06/03 01:49:38;;;;;;;13.93;7.47;;;;;;;19.86;100.00;95024.00;5097783;28;20634;-79
2022/06/03 01:53:01;;;;;;;13.15;7.60;;;;;;;19.84;100.00;95024.28;5106729;28;20236;-79
2022/06/03 01:56:13;;;;;;;17.33;7.38;;;;;;;19.83;100.00;95031.41;5065872;28;20715;-79
2022/06/03 01:59:18;;;;;;;16.63;7.30;;;;;;;19.83;100.00;95028.75;5100488;28;20206;-78
2022/06/03 02:02:16;;;;;;;14.98;7.53;;;;;;;19.83;100.00;95025.31;5098369;28;20264;-79
2022/06/03 02:05:12;;;;;;;19.00;7.40;;;;;;;19.76;100.00;95030.09;5098556;28;20211;-78
2022/06/03 02:08:26;;;;;;;14.30;7.25;;;;;;;19.77;100.00;95031.66;5105398;28;20705;-79
2022/06/03 02:11:28;;;;;;;14.88;7.07;;;;;;;19.71;100.00;95025.59;5096653;28;20307;-79
2022/06/03 02:14:49;;;;;;;14.13;7.90;;;;;;;19.67;100.00;95037.75;5101879;28;20207;-79
2022/06/03 02:17:47;;;;;;;19.15;7.75;;;;;;;19.58;100.00;95028.78;5074158;28;20231;-78
2022/06/03 02:20:53;;;;;;;10.95;6.70;;;;;;;19.43;100.00;95035.88;5079999;28;20252;-78
2022/06/03 02:23:53;;;;;;;9.93;7.22;;;;;;;19.41;100.00;95035.38;5099271;28;20308;-83
2022/06/03 02:26:54;;;;;;;14.90;7.68;;;;;;;19.41;100.00;95040.66;5087886;28;20686;-84
2022/06/03 02:30:27;;;;;;;13.75;7.85;;;;;;;19.39;100.00;95042.75;5092373;28;20207;-78
2022/06/03 02:33:29;;;;;;;19.05;8.20;;;;;;;19.40;100.00;95047.75;5096449;28;20690;-77
2022/06/03 02:36:36;;;;;;;14.10;8.52;;;;;;;19.40;100.00;95044.31;5107821;28;20268;-77
2022/06/03 02:39:27;;;;;;;13.27;8.43;;;;;;;19.34;100.00;95032.97;5106493;28;20203;-77
2022/06/03 02:42:32;;;;;;;18.85;8.65;;;;;;;19.20;100.00;95030.06;5101717;28;20196;-77
2022/06/03 02:45:25;;;;;;;14.80;8.57;;;;;;;19.26;100.00;95039.56;5106034;28;20199;-77
2022/06/03 02:48:29;;;;;;;16.15;9.60;;;;;;;19.26;100.00;95050.09;5107777;28;20330;-77
2022/06/03 02:51:27;;;;;;;13.48;9.27;;;;;;;19.28;100.00;95049.81;5095388;28;20204;-77
2022/06/03 02:54:42;;;;;;;18.08;9.23;;;;;;;19.27;100.00;95048.25;5108902;28;20196;-76
2022/06/03 02:57:45;;;;;;;32.97;17.58;;;;;;;19.00;100.00;95042.41;5106736;28;20317;-77
2022/06/03 03:00:33;;;;;;;28.30;19.50;;;;;;;18.92;100.00;95053.44;5104157;28;20210;-77
2022/06/03 03:03:41;;;;;;;22.55;14.68;;;;;;;18.94;100.00;95053.97;5099397;28;21059;-77
2022/06/03 03:06:36;;;;;;;22.23;12.27;;;;;;;18.98;100.00;95052.41;5105659;28;20995;-77
2022/06/03 03:09:29;;;;;;;20.38;12.00;;;;;;;19.04;100.00;95052.19;5103819;28;20319;-77
2022/06/03 03:12:39;;;;;;;23.08;11.70;;;;;;;19.08;100.00;95045.31;5104420;28;20200;-78
2022/06/03 03:15:42;;;;;;;15.73;11.43;;;;;;;19.12;100.00;95051.66;5085568;28;20200;-78
2022/06/03 03:18:35;;;;;;;23.02;13.55;;;;;;;19.10;100.00;95051.13;5100931;28;20208;-78
2022/06/03 03:21:42;;;;;;;14.93;9.43;;;;;;;18.99;100.00;95046.88;5106338;28;20199;-78
2022/06/03 03:24:38;;;;;;;20.40;10.60;;;;;;;19.03;100.00;95050.56;5098896;28;20204;-78
2022/06/03 03:27:27;;;;;;;20.85;11.77;;;;;;;19.06;100.00;95063.22;5099002;28;20677;-79
2022/06/03 03:30:21;;;;;;;32.22;13.20;;;;;;;19.07;100.00;95066.66;5106472;28;20857;-79
2022/06/03 03:33:14;;;;;;;22.88;13.13;;;;;;;19.10;100.00;95059.03;5098613;28;20197;-80
2022/06/03 03:36:09;;;;;;;22.50;12.35;;;;;;;19.13;100.00;95058.50;5106434;28;20686;-73
2022/06/03 03:39:20;;;;;;;17.40;11.55;;;;;;;19.20;100.00;95064.31;5106582;28;20371;-74
2022/06/03 03:42:32;;;;;;;23.20;12.63;;;;;;;19.22;100.00;95056.13;5106774;28;20224;-74
2022/06/03 03:45:32;;;;;;;22.23;11.52;;;;;;;19.28;100.00;95068.28;5109326;28;20218;-74
2022/06/03 03:48:54;;;;;;;21.13;12.05;;;;;;;19.30;100.00;95071.47;5106700;28;20207;-74
2022/06/03 03:51:54;;;;;;;24.40;12.13;;;;;;;19.34;100.00;95069.88;5106969;28;20196;-74
2022/06/03 03:55:05;;;;;;;29.92;11.07;;;;;;;19.37;100.00;95071.19;5105374;28;20203;-74
2022/06/03 03:58:25;;;;;;;21.40;11.07;;;;;;;19.41;100.00;95081.00;5107664;28;20211;-72
2022/06/03 04:01:44;;;;;;;19.10;11.02;;;;;;;19.48;100.00;95081.50;5104830;28;20227;-73
2022/06/03 04:04:50;;;;;;;19.85;11.25;;;;;;;19.53;100.00;95086.81;5104938;28;20196;-74
2022/06/03 04:07:41;;;;;;;24.27;11.20;;;;;;;19.60;100.00;95081.25;5105944;28;20224;-73
2022/06/03 04:10:46;;;;;;;24.98;11.70;;;;;;;19.66;100.00;95080.19;5071229;28;20199;-73
2022/06/03 04:13:56;;;;;;;27.92;11.45;;;;;;;19.66;100.00;95072.28;5098577;28;20203;-72
2022/06/03 04:16:54;;;;;;;28.55;12.63;;;;;;;19.72;100.00;95074.66;5039918;28;20206;-73
2022/06/03 04:20:08;;;;;;;26.60;13.00;;;;;;;19.77;100.00;95072.03;5100541;28;20281;-72
2022/06/03 04:23:06;;;;;;;29.73;13.38;;;;;;;19.80;100.00;95073.34;5101712;28;20322;-73
2022/06/03 04:26:11;;;;;;;32.63;14.48;;;;;;;19.86;100.00;95069.66;5099586;28;20626;-73
2022/06/03 04:29:34;;;;;;;37.55;14.85;;;;;;;19.90;100.00;95077.81;5071910;28;20208;-72
2022/06/03 04:32:50;;;;;;;32.63;15.05;;;;;;;19.81;100.00;95074.94;5099160;28;20200;-72
2022/06/03 04:36:13;;;;;;;25.52;11.15;;;;;;;19.85;100.00;95081.28;5100387;28;20288;-72
2022/06/03 04:39:25;;;;;;;17.95;9.10;;;;;;;19.86;100.00;95085.47;5101649;28;20212;-72
2022/06/03 04:42:44;;;;;;;21.67;8.85;;;;;;;19.98;100.00;95088.63;5099933;28;20268;-73
2022/06/03 04:46:02;;;;;;;18.05;8.98;;;;;;;20.03;100.00;95096.53;5099957;28;20265;-72
2022/06/03 04:49:19;;;;;;;17.13;8.25;;;;;;;20.00;100.00;95106.88;4987944;28;20602;-71
2022/06/03 04:52:37;;;;;;;13.10;7.15;;;;;;;20.14;100.00;95110.53;5100886;28;20215;-72
2022/06/03 04:55:43;;;;;;;16.67;7.50;;;;;;;20.16;100.00;95111.84;5095779;28;21213;-71
2022/06/03 04:58:58;;;;;;;14.02;7.80;;;;;;;20.24;100.00;95116.59;5098742;28;20200;-71
2022/06/03 05:02:13;;;;;;;21.50;8.40;;;;;;;20.36;100.00;95127.69;5075060;28;20205;-72
2022/06/03 05:05:35;;;;;;;20.35;8.35;;;;;;;20.43;100.00;95124.78;5099876;28;20207;-75
2022/06/03 05:08:59;;;;;;;18.70;7.90;;;;;;;20.46;100.00;95123.47;5099200;28;20313;-76
2022/06/03 05:12:06;;;;;;;16.08;8.20;;;;;;;20.61;100.00;95124.19;5098568;28;20195;-75
2022/06/03 05:15:03;;;;;;;16.80;8.23;;;;;;;20.63;100.00;95122.09;5099653;28;20281;-75
2022/06/03 05:18:17;;;;;;;16.92;8.50;;;;;;;20.58;100.00;95122.09;5100572;28;20235;-75
2022/06/03 05:21:15;;;;;;;15.95;8.05;;;;;;;20.57;100.00;95127.66;5100054;28;20283;-75
2022/06/03 05:24:29;;;;;;;18.70;7.88;;;;;;;20.57;100.00;95127.66;5100260;28;20775;-77
2022/06/03 05:27:30;;;;;;;22.88;8.15;;;;;;;20.59;100.00;95123.69;5101428;28;20200;-75
2022/06/03 05:30:53;;;;;;;17.20;7.07;;;;;;;20.72;100.00;95132.91;5074898;28;20204;-76
2022/06/03 05:33:53;;;;;;;14.48;7.47;;;;;;;20.70;100.00;95129.72;5098264;28;21092;-76
2022/06/03 05:36:59;;;;;;;11.85;6.85;;;;;;;20.74;100.00;95138.69;5098638;28;20682;-76
2022/06/03 05:40:06;;;;;;;16.20;7.25;;;;;;;20.84;100.00;95141.28;5062690;28;20292;-76
2022/06/03 05:43:18;;;;;;;18.20;7.70;;;;;;;20.93;100.00;95147.59;5099209;28;20219;-74
2022/06/03 05:46:09;;;;;;;13.38;7.78;;;;;;;21.09;100.00;95141.25;5098848;28;20204;-80
2022/06/03 05:49:20;;;;;;;14.98;9.60;;;;;;;21.21;100.00;95138.28;5089438;28;20577;-75
2022/06/03 05:52:12;;;;;;;16.88;9.38;;;;;;;21.24;100.00;95135.88;5096817;28;20216;-75
2022/06/03 05:55:02;;;;;;;15.30;9.10;;;;;;;21.30;100.00;95139.28;5095779;28;20210;-77
2022/06/03 05:57:41;;;;;;;17.42;8.00;;;;;;;21.43;100.00;95130.75;5094932;28;20196;-73
2022/06/03 06:00:36;;;;;;;13.50;8.00;;;;;;;21.43;100.00;95128.91;5098808;28;20682;-74
2022/06/03 06:03:22;;;;;;;14.15;8.40;;;;;;;21.52;100.00;95121.19;5096117;28;20226;-73
2022/06/03 06:06:02;;;;;;;14.60;7.97;;;;;;;21.53;100.00;95120.09;5099804;28;20212;-74
2022/06/03 06:08:43;;;;;;;10.23;6.95;;;;;;;21.59;100.00;95105.78;5098646;28;20329;-73
2022/06/03 06:11:27;;;;;;;12.27;7.28;;;;;;;21.69;100.00;95107.56;5095811;28;20200;-73
2022/06/03 06:14:28;;;;;;;17.00;7.57;;;;;;;21.74;100.00;95107.53;5095731;28;20211;-73
2022/06/03 06:17:03;;;;;;;13.15;7.53;;;;;;;21.78;100.00;95108.56;5079888;28;20222;-73
2022/06/03 06:19:47;;;;;;;12.90;7.80;;;;;;;21.85;100.00;95107.16;5098766;28;20203;-74
2022/06/03 06:22:43;;;;;;;15.30;7.80;;;;;;;21.94;100.00;95105.53;5100870;28;20230;-75
2022/06/03 06:25:21;;;;;;;15.52;7.78;;;;;;;22.02;100.00;95110.22;5096524;28;20211;-75
2022/06/03 06:28:05;;;;;;;18.58;8.40;;;;;;;22.10;99.72;95113.38;5100218;28;20248;-74
2022/06/03 06:30:56;;;;;;;11.32;7.63;;;;;;;22.12;100.00;95112.00;5098380;28;20627;-74
2022/06/03 06:34:06;;;;;;;13.80;7.65;;;;;;;22.24;98.90;95104.50;5095349;28;20592;-75
2022/06/03 06:37:21;;;;;;;17.77;7.18;;;;;;;22.31;98.21;95104.94;5096615;28;20222;-74
2022/06/03 06:40:04;;;;;;;9.93;6.72;;;;;;;22.40;96.71;95102.47;5015432;28;20210;-74
2022/06/03 06:42:55;;;;;;;13.27;8.00;;;;;;;22.40;95.44;95097.16;5100683;28;20307;-74
2022/06/03 06:45:35;;;;;;;13.40;6.60;;;;;;;22.47;95.07;95105.59;5101586;28;20262;-75
2022/06/03 06:48:19;;;;;;;15.30;7.40;;;;;;;22.53;95.13;95096.53;5104914;28;20737;-74
2022/06/03 06:50:54;;;;;;;11.63;6.30;;;;;;;22.54;91.79;95098.88;5105124;28;20196;-74
2022/06/03 06:53:37;;;;;;;10.43;6.47;;;;;;;22.58;88.43;95102.56;5104607;28;20226;-74
2022/06/03 06:56:20;;;;;;;11.73;5.90;;;;;;;22.74;87.71;95099.78;5106782;28;20277;-83
2022/06/03 06:58:59;;;;;;;12.32;6.50;;;;;;;22.84;88.37;95089.03;5096524;28;20200;-90
2022/06/03 07:01:50;;;;;;;21.27;6.90;;;;;;;22.86;89.81;95098.28;5096345;28;20253;-89
2022/06/03 07:04:27;;;;;;;15.57;6.38;;;;;;;22.85;87.98;95099.38;5098413;28;20235;-90
2022/06/03 07:07:04;;;;;;;16.08;6.15;;;;;;;23.02;86.09;95105.00;5106005;28;20200;-90
2022/06/03 07:10:07;;;;;;;11.60;5.55;;;;;;;23.15;85.54;95090.22;5107921;28;20618;-89
2022/06/03 07:12:40;;;;;;;12.23;6.50;;;;;;;23.23;85.07;95092.25;5105910;28;20207;-90
2022/06/03 07:15:18;;;;;;;8.85;5.70;;;;;;;23.28;83.92;95094.84;5105308;28;20214;-89
2022/06/03 07:20:55;;;;;;;11.52;6.18;;;;;;;23.29;83.33;95085.78;5106427;28;20206;-90
2022/06/03 07:23:32;;;;;;;14.55;6.10;;;;;;;23.44;81.81;95085.59;5102848;28;20601;-90
2022/06/03 07:26:07;;;;;;;12.98;6.43;;;;;;;23.49;81.39;95092.72;5096525;28;20670;-83
2022/06/03 07:28:45;;;;;;;8.90;6.00;;;;;;;23.35;81.38;95075.91;5104064;28;20199;-86
2022/06/03 07:31:22;;;;;;;16.73;6.00;;;;;;;23.45;80.77;95089.84;5113872;28;20207;-85
2022/06/03 07:34:05;;;;;;;10.07;5.70;;;;;;;23.64;81.46;95090.63;5100260;28;20232;-87
2022/06/03 07:36:46;;;;;;;12.25;6.60;;;;;;;23.82;79.88;95086.34;5095561;28;20683;-87
2022/06/03 07:39:38;;;;;;;12.18;6.55;;;;;;;23.96;79.22;95089.06;5107808;28;20203;-87
2022/06/03 07:42:13;;;;;;;8.98;5.75;;;;;;;24.17;79.05;95098.31;5095823;28;20188;-88
2022/06/03 07:44:52;;;;;;;18.92;6.20;;;;;;;24.32;78.53;95099.91;5107852;28;20199;-86
2022/06/03 07:47:25;;;;;;;14.98;6.65;;;;;;;24.36;74.35;95101.66;5111586;28;20204;-87
2022/06/03 07:50:01;;;;;;;13.70;6.40;;;;;;;24.40;74.39;95105.34;5110868;28;20268;-87
2022/06/03 07:52:38;;;;;;;11.00;5.82;;;;;;;24.47;75.39;95110.28;5097020;28;20208;-86
2022/06/03 07:55:25;;;;;;;13.85;6.72;;;;;;;24.54;76.17;95108.78;5094504;28;20727;-86
2022/06/03 07:57:56;;;;;;;11.07;7.43;;;;;;;24.68;73.11;95114.91;5106697;28;21474;-76
2022/06/03 08:00:27;;;;;;;8.23;5.60;;;;;;;24.80;74.12;95123.22;5104418;28;20208;-89
2022/06/03 08:03:08;;;;;;;13.10;6.30;;;;;;;24.90;73.95;95111.59;5107126;28;20307;-88
2022/06/03 08:05:38;;;;;;;12.57;6.68;;;;;;;24.94;72.35;95115.22;5096235;28;20200;-80
2022/06/03 08:11:02;;;;;;;14.50;6.90;;;;;;;25.15;71.44;95119.06;5108319;28;20338;-80
2022/06/03 08:13:48;;;;;;;13.77;6.38;;;;;;;25.29;70.17;95124.38;5107639;28;20191;-79
2022/06/03 08:16:31;;;;;;;7.22;5.25;;;;;;;25.38;69.42;95119.91;5107031;28;20257;-82
2022/06/03 08:19:03;;;;;;;8.48;5.40;;;;;;;25.60;70.55;95124.53;5101654;28;20192;-83
2022/06/03 08:21:41;;;;;;;12.35;6.22;;;;;;;25.71;70.38;95132.00;5108357;28;20253;-82
2022/06/03 08:24:12;;;;;;;10.95;6.25;;;;;;;25.75;68.08;95124.19;5104172;28;20208;-82
2022/06/03 08:26:45;;;;;;;11.60;6.00;;;;;;;25.67;68.99;95135.56;5110097;28;20202;-82
2022/06/03 08:29:21;;;;;;;9.85;6.20;;;;;;;25.67;67.55;95133.69;5103475;28;20208;-80
2022/06/03 08:31:50;;;;;;;10.50;6.18;;;;;;;25.73;68.36;95129.03;5108051;28;20576;-80
2022/06/03 08:34:26;;;;;;;6.97;5.28;;;;;;;25.85;69.40;95138.06;5104576;28;20628;-81
2022/06/03 08:36:57;;;;;;;9.77;5.90;;;;;;;25.89;69.08;95141.69;5104138;28;20646;-81
2022/06/03 08:39:29;;;;;;;10.85;6.38;;;;;;;25.91;69.21;95133.41;5109337;28;20945;-80
2022/06/03 08:42:11;;;;;;;9.20;5.97;;;;;;;25.95;70.85;95135.16;5102291;28;20218;-80
2022/06/03 08:44:53;;;;;;;11.70;6.20;;;;;;;26.08;69.60;95130.06;5109486;28;20219;-82
2022/06/03 08:47:27;;;;;;;11.00;5.97;;;;;;;26.21;69.44;95134.56;5106148;28;20269;-82
2022/06/03 08:50:09;;;;;;;17.58;6.30;;;;;;;26.37;67.06;95133.13;5103996;28;20244;-79
2022/06/03 08:52:54;;;;;;;13.75;5.60;;;;;;;26.51;64.95;95139.16;5109016;28;20203;-78
2022/06/03 08:55:51;;;;;;;10.80;5.80;;;;;;;26.57;63.11;95143.28;5109268;28;20210;-78
2022/06/03 08:58:30;;;;;;;12.32;6.13;;;;;;;26.66;62.52;95140.66;5108086;28;20200;-78
2022/06/03 09:01:15;;;;;;;7.18;5.45;;;;;;;26.74;62.54;95148.69;5104407;28;20197;-78
2022/06/03 09:04:03;;;;;;;12.43;6.05;;;;;;;26.83;62.01;95140.75;5102472;28;20219;-78
2022/06/03 09:06:48;;;;;;;10.35;5.65;;;;;;;26.97;60.64;95146.75;5102408;28;20203;-78
2022/06/03 09:09:28;;;;;;;11.35;6.57;;;;;;;27.08;59.74;95139.25;5100464;28;20254;-79
2022/06/03 09:12:08;;;;;;;9.85;5.80;;;;;;;27.20;58.31;95147.47;5096679;28;20192;-78
2022/06/03 09:14:41;;;;;;;16.00;6.00;;;;;;;27.33;57.81;95157.25;5104202;28;20250;-78
2022/06/03 09:17:34;;;;;;;6.75;5.38;;;;;;;27.46;57.69;95156.34;5098598;28;20673;-92
2022/06/03 09:20:09;;;;;;;10.38;6.05;;;;;;;27.43;58.08;95159.66;5111902;28;20203;-90
2022/06/03 09:22:39;;;;;;;8.68;6.00;;;;;;;27.36;57.79;95153.97;5109969;28;20678;-83
2022/06/03 09:25:14;;;;;;;10.57;5.47;;;;;;;27.19;58.60;95160.03;5098064;28;20220;-85
2022/06/03 09:27:51;;;;;;;11.43;6.00;;;;;;;27.11;59.03;95155.44;5112332;28;20282;-83
2022/06/03 09:30:34;;;;;;;15.27;5.93;;;;;;;27.01;59.33;95158.41;5111465;28;20225;-83
2022/06/03 09:33:07;;;;;;;12.68;5.68;;;;;;;26.95;59.49;95162.31;5109216;28;20283;-84
2022/06/03 09:35:45;;;;;;;14.32;7.00;;;;;;;26.97;58.53;95158.22;5108222;28;20282;-83
2022/06/03 09:38:21;;;;;;;10.75;5.22;;;;;;;26.92;55.95;95160.25;5094614;28;20188;-89
2022/06/03 09:40:56;;;;;;;9.88;5.43;;;;;;;26.93;54.57;95151.13;5096298;28;20192;-89
2022/06/03 09:43:28;;;;;;;7.43;4.88;;;;;;;26.92;53.31;95161.06;5107962;28;20212;-90
2022/06/03 09:46:02;;;;;;;8.32;4.82;;;;;;;26.90;52.84;95160.53;5109181;28;20192;-90
2022/06/03 09:48:37;;;;;;;7.43;4.90;;;;;;;26.81;52.34;95154.38;5108018;28;20294;-90
2022/06/03 09:51:16;;;;;;;9.07;4.80;;;;;;;26.79;52.62;95155.78;5111787;28;20195;-90
2022/06/03 09:53:49;;;;;;;6.45;4.53;;;;;;;26.75;51.07;95160.94;5108096;28;20204;-90
2022/06/03 09:56:30;;;;;;;9.63;4.88;;;;;;;26.76;51.91;95165.16;5105511;28;21002;-88
2022/06/03 09:59:06;;;;;;;8.88;4.90;;;;;;;26.67;50.78;95161.66;5108924;28;20208;-88
2022/06/03 10:01:35;;;;;;;8.30;4.63;;;;;;;26.66;50.07;95156.66;5127616;28;20204;-87
2022/06/03 10:04:11;;;;;;;7.50;4.38;;;;;;;26.63;49.95;95157.25;5123469;28;20232;-87
2022/06/03 10:06:50;;;;;;;9.77;4.80;;;;;;;26.60;50.08;95157.88;5119778;28;20188;-88
2022/06/03 10:17:55;;;;;;;7.47;5.05;;;;;;;26.69;51.30;95146.16;5114605;28;20203;-85
2022/06/03 10:20:26;;;;;;;9.02;5.25;;;;;;;26.74;52.24;95156.69;5110206;28;20199;-87
2022/06/03 10:23:02;;;;;;;12.93;5.70;;;;;;;26.73;52.48;95156.97;5106493;28;20246;-86
2022/06/03 10:25:34;;;;;;;13.57;5.55;;;;;;;26.72;53.27;95150.88;5106351;28;20652;-86
2022/06/03 10:28:14;;;;;;;12.23;6.25;;;;;;;26.80;53.28;95154.69;5108179;28;20231;-86
2022/06/03 10:30:46;;;;;;;8.63;5.38;;;;;;;26.89;53.12;95155.53;5109564;28;20207;-88
2022/06/03 10:33:23;;;;;;;6.07;4.72;;;;;;;27.11;53.34;95152.00;5098488;28;20200;-89
2022/06/03 10:35:53;;;;;;;10.23;4.80;;;;;;;27.52;52.35;95153.22;5092557;28;20203;-88
2022/06/03 10:38:25;;;;;;;8.35;4.78;;;;;;;27.90;50.91;95152.63;5108513;28;20248;-88
2022/06/03 10:40:58;;;;;;;10.38;5.68;;;;;;;28.19;49.95;95144.78;5109648;28;20219;-87
2022/06/03 10:43:32;;;;;;;7.00;5.60;;;;;;;28.51;49.94;95151.50;5100037;28;20228;-88
2022/06/03 10:46:15;;;;;;;10.73;6.25;;;;;;;28.76;48.38;95152.53;5095553;28;20209;-88
2022/06/03 10:48:45;;;;;;;11.07;6.32;;;;;;;28.88;46.72;95153.47;5110122;28;20204;-88
2022/06/03 11:01:06;;;;;;;11.10;6.07;;;;;;;29.14;46.97;95148.00;5110910;28;20331;-88
2022/06/03 11:02:41;;;;;;;9.35;5.10;;;;;;;29.34;46.04;95135.78;5117758;28;20279;-89
2022/06/03 11:05:14;;;;;;;9.85;5.15;;;;;;;29.52;45.45;95124.63;5112273;28;20224;-90
2022/06/03 11:07:46;;;;;;;11.20;5.22;;;;;;;29.66;45.46;95119.81;5112315;28;20259;-91
2022/06/03 11:10:17;;;;;;;7.82;4.80;;;;;;;29.82;44.89;95128.06;5096428;28;20209;-88
2022/06/03 11:12:46;;;;;;;12.05;4.95;;;;;;;29.31;43.81;95115.78;5100958;28;20233;-89
2022/06/03 11:15:36;;;;;;;7.15;4.88;;;;;;;29.29;45.35;95117.22;5099905;28;20279;-80
2022/06/03 11:18:17;;;;;;;12.30;4.85;;;;;;;29.60;44.72;95114.97;5105948;28;20208;-78
2022/06/03 11:20:47;;;;;;;6.97;5.05;;;;;;;29.91;43.85;95114.56;5105230;28;20226;-79
2022/06/03 11:23:20;;;;;;;9.63;4.82;;;;;;;30.07;41.83;95110.94;5105006;28;20264;-79
2022/06/03 11:25:50;;;;;;;6.85;4.80;;;;;;;30.25;42.55;95100.84;5095167;28;20211;-78
2022/06/03 11:28:23;;;;;;;11.90;4.90;;;;;;;30.50;42.25;95104.41;5098872;28;20222;-78
2022/06/03 11:31:00;;;;;;;8.70;5.03;;;;;;;30.64;41.98;95107.56;5101723;28;20280;-79
2022/06/03 11:33:38;;;;;;;8.43;4.75;;;;;;;30.49;41.20;95103.63;5107712;28;20195;-81
2022/06/03 11:36:14;;;;;;;10.93;4.85;;;;;;;30.62;41.59;95096.41;5102971;28;20203;-82
2022/06/03 11:38:50;;;;;;;12.88;5.60;;;;;;;30.80;41.77;95097.75;5105797;28;20212;-81
2022/06/03 11:41:26;;;;;;;12.27;5.25;;;;;;;30.88;40.71;95102.25;5093395;28;20196;-81
2022/06/03 11:44:03;;;;;;;7.88;5.35;;;;;;;31.00;39.65;95098.81;5109265;28;20219;-77
2022/06/03 11:46:38;;;;;;;8.98;4.78;;;;;;;31.28;40.22;95091.63;5109066;28;20209;-82
2022/06/03 11:49:08;;;;;;;11.75;4.95;;;;;;;31.35;40.37;95089.13;5105562;28;20231;-80
2022/06/03 11:51:39;;;;;;;8.38;4.93;;;;;;;31.40;39.27;95075.47;5106229;28;20299;-79
2022/06/03 11:54:31;;;;;;;8.60;5.00;;;;;;;31.41;38.82;95091.25;5097811;28;20281;-89
2022/06/03 11:57:05;;;;;;;6.65;4.43;;;;;;;31.43;38.52;95089.00;5019033;28;20203;-91
2022/06/03 11:59:40;;;;;;;6.38;4.55;;;;;;;31.67;38.28;95092.78;5101136;28;20217;-90
2022/06/03 12:02:20;;;;;;;9.65;4.60;;;;;;;31.63;37.75;95106.13;5103487;28;20205;-90
2022/06/03 12:04:57;;;;;;;7.40;4.57;;;;;;;31.86;38.35;95084.91;5106882;28;20297;-90
2022/06/03 12:07:36;;;;;;;6.85;4.68;;;;;;;31.98;37.09;95095.59;5105832;28;20311;-89
2022/06/03 12:10:13;;;;;;;6.65;4.50;;;;;;;32.00;36.67;95083.38;5108282;28;20210;-89
2022/06/03 12:15:51;;;;;;;6.18;4.60;;;;;;;32.01;34.65;95086.84;5106006;28;20200;-89
2022/06/03 12:18:52;;;;;;;6.07;4.10;;;;;;;31.79;35.18;95090.84;5092548;28;20445;-89
2022/06/03 12:21:58;;;;;;;9.20;4.80;;;;;;;31.24;36.67;95094.19;5098196;28;20220;-90
2022/06/03 12:24:48;;;;;;;7.32;4.55;;;;;;;30.85;35.49;95084.88;5111269;28;20219;-80
2022/06/03 12:27:29;;;;;;;7.45;4.53;;;;;;;30.57;37.15;95083.97;5107050;28;20636;-89
2022/06/03 12:30:23;;;;;;;10.32;4.75;;;;;;;30.46;36.58;95087.41;5104978;28;20273;-89
2022/06/03 12:32:58;;;;;;;10.05;4.35;;;;;;;30.28;37.83;95086.78;5111643;28;20200;-90
2022/06/03 12:36:07;;;;;;;8.73;4.15;;;;;;;30.17;39.48;95085.63;5104569;28;20250;-90
2022/06/03 12:39:16;;;;;;;7.55;4.47;;;;;;;30.11;38.43;95085.06;5105280;28;20218;-91
2022/06/03 12:42:16;;;;;;;6.18;4.15;;;;;;;30.08;37.96;95090.28;5103611;28;20204;-90
2022/06/03 12:45:24;;;;;;;8.10;4.28;;;;;;;29.95;38.25;95089.47;5101777;28;20224;-86
2022/06/03 12:47:55;;;;;;;7.05;4.43;;;;;;;29.80;39.58;95079.31;5104231;28;20203;-87
2022/06/03 12:50:37;;;;;;;9.38;5.07;;;;;;;29.72;40.30;95069.47;5101928;28;20288;-79
2022/06/03 12:53:44;;;;;;;8.55;4.80;;;;;;;29.60;40.96;95067.50;5099617;28;20288;-79
2022/06/03 12:56:29;;;;;;;7.57;5.15;;;;;;;29.58;42.35;95069.72;5092848;28;20583;-78
2022/06/03 12:59:05;;;;;;;9.48;4.95;;;;;;;29.62;42.67;95072.53;5100579;28;20197;-79
2022/06/03 13:01:48;;;;;;;9.52;5.00;;;;;;;29.54;42.76;95071.50;5098848;28;20214;-78
2022/06/03 13:04:47;;;;;;;11.57;5.18;;;;;;;29.48;41.87;95080.03;5099109;28;20215;-79
2022/06/03 13:07:32;;;;;;;6.72;5.10;;;;;;;29.46;40.92;95077.72;5102289;28;20236;-79
2022/06/03 13:10:22;;;;;;;9.70;4.97;;;;;;;29.40;41.51;95081.69;5099002;28;20204;-78
2022/06/03 13:12:58;;;;;;;9.40;5.07;;;;;;;29.45;42.09;95083.38;5102159;28;20199;-80
2022/06/03 13:15:47;;;;;;;10.02;5.50;;;;;;;29.44;41.48;95084.50;5100874;28;20191;-79
2022/06/03 13:18:39;;;;;;;8.98;5.00;;;;;;;29.45;42.20;95075.34;5106075;28;20200;-81
2022/06/03 13:21:28;;;;;;;8.10;5.00;;;;;;;29.54;42.17;95087.56;5100879;28;20250;-80
2022/06/03 13:24:17;;;;;;;7.13;4.95;;;;;;;29.55;42.28;95073.03;5094647;28;20192;-81
2022/06/03 13:26:54;;;;;;;12.68;5.30;;;;;;;29.61;42.61;95077.09;5101815;28;20226;-78
2022/06/03 13:30:13;;;;;;;9.52;5.03;;;;;;;29.62;42.60;95076.00;5107799;28;20210;-78
2022/06/03 13:33:14;;;;;;;9.10;5.60;;;;;;;29.57;43.40;95072.72;5104001;28;20256;-76
2022/06/03 13:36:05;;;;;;;10.23;5.78;;;;;;;29.61;44.37;95066.38;5106538;28;20200;-77
2022/06/03 13:38:47;;;;;;;8.73;5.55;;;;;;;29.66;43.69;95062.72;5107080;28;20200;-77